createdAt,value
2019-03-17T00:01:57.059Z,9.60
2019-03-17T00:04:30.864Z,9.50
2019-03-17T00:06:52.155Z,9.50
2019-03-17T00:09:21.263Z,9.50
2019-03-17T00:11:50.359Z,9.60
2019-03-17T00:14:19.545Z,9.60
2019-03-17T00:16:48.660Z,9.60
2019-03-17T00:19:17.765Z,9.60
2019-03-17T00:21:46.914Z,9.60
2019-03-17T00:24:16.020Z,9.60
2019-03-17T00:26:45.120Z,9.60
2019-03-17T00:29:14.270Z,9.60
2019-03-17T00:31:43.379Z,9.60
2019-03-17T00:34:12.490Z,9.60
2019-03-17T00:36:41.614Z,9.60
2019-03-17T00:39:10.793Z,9.60
2019-03-17T00:41:39.942Z,9.50
2019-03-17T00:44:09.096Z,9.40
2019-03-17T00:46:38.237Z,9.30
2019-03-17T00:49:07.359Z,9.20
2019-03-17T00:51:36.521Z,9.10
2019-03-17T00:54:05.631Z,9.00
2019-03-17T00:56:36.409Z,8.90
2019-03-17T00:59:05.821Z,8.90
2019-03-17T01:01:35.189Z,8.80
2019-03-17T01:04:04.289Z,8.80
2019-03-17T01:06:33.458Z,8.80
2019-03-17T01:09:03.556Z,8.70
2019-03-17T01:11:32.767Z,8.70
2019-03-17T01:14:01.923Z,8.70
2019-03-17T01:16:31.028Z,8.70
2019-03-17T01:19:00.085Z,8.70
2019-03-17T01:21:29.230Z,8.70
2019-03-17T01:23:58.355Z,8.70
2019-03-17T01:26:27.446Z,8.60
2019-03-17T01:28:56.578Z,8.60
2019-03-17T01:31:25.686Z,8.60
2019-03-17T01:33:54.776Z,8.60
2019-03-17T01:36:23.914Z,8.60
2019-03-17T01:38:53.092Z,8.50
2019-03-17T01:41:22.235Z,8.40
2019-03-17T01:43:51.342Z,8.40
2019-03-17T01:46:20.507Z,8.30
2019-03-17T01:48:49.628Z,8.30
2019-03-17T01:51:18.761Z,8.40
2019-03-17T01:53:47.952Z,8.40
2019-03-17T01:56:16.983Z,8.30
2019-03-17T01:58:46.160Z,8.30
2019-03-17T02:01:15.320Z,8.30
2019-03-17T02:03:44.501Z,8.30
2019-03-17T02:06:13.679Z,8.30
2019-03-17T02:08:42.797Z,8.20
2019-03-17T02:11:11.911Z,8.20
2019-03-17T02:13:41.131Z,8.30
2019-03-17T02:16:10.241Z,8.30
2019-03-17T02:18:39.349Z,8.20
2019-03-17T02:21:08.537Z,8.20
2019-03-17T02:23:37.635Z,8.30
2019-03-17T02:26:07.111Z,8.20
2019-03-17T02:28:36.261Z,8.30
2019-03-17T02:31:05.363Z,8.20
2019-03-17T02:33:34.457Z,8.20
2019-03-17T02:36:03.606Z,8.20
2019-03-17T02:38:32.628Z,8.20
2019-03-17T02:41:01.720Z,8.20
2019-03-17T02:43:30.791Z,8.20
2019-03-17T02:46:02.766Z,8.20
2019-03-17T02:48:30.648Z,8.20
2019-03-17T02:50:59.695Z,8.20
2019-03-17T02:53:29.155Z,8.20
2019-03-17T02:55:58.283Z,8.20
2019-03-17T02:58:27.949Z,8.20
2019-03-17T03:00:56.973Z,8.20
2019-03-17T03:03:26.188Z,8.20
2019-03-17T03:05:55.779Z,8.30
2019-03-17T03:08:24.957Z,8.20
2019-03-17T03:10:54.477Z,8.20
2019-03-17T03:13:23.552Z,8.20
2019-03-17T03:15:57.168Z,8.20
2019-03-17T03:18:27.469Z,8.10
2019-03-17T03:20:56.608Z,8.10
2019-03-17T03:23:25.620Z,8.10
2019-03-17T03:25:54.802Z,8.00
2019-03-17T03:28:23.962Z,8.00
2019-03-17T03:30:53.445Z,8.00
2019-03-17T03:33:22.538Z,8.00
2019-03-17T03:35:51.734Z,8.00
2019-03-17T03:38:20.757Z,8.00
2019-03-17T03:40:53.078Z,8.00
2019-03-17T03:43:22.211Z,8.00
2019-03-17T03:45:51.538Z,8.00
2019-03-17T03:48:20.639Z,8.00
2019-03-17T03:50:49.699Z,7.80
2019-03-17T03:53:20.604Z,7.40
2019-03-17T03:55:50.893Z,7.30
2019-03-17T03:58:20.000Z,7.30
2019-03-17T04:00:49.120Z,7.20
2019-03-17T04:03:18.267Z,7.20
2019-03-17T04:05:47.409Z,7.20
2019-03-17T04:08:16.636Z,7.10
2019-03-17T04:10:45.707Z,7.00
2019-03-17T04:13:14.815Z,6.90
2019-03-17T04:15:43.936Z,6.80
2019-03-17T04:18:13.090Z,6.80
2019-03-17T04:20:42.235Z,6.80
2019-03-17T04:23:12.615Z,6.50
2019-03-17T04:25:41.711Z,6.30
2019-03-17T04:28:10.758Z,6.20
2019-03-17T04:30:40.324Z,6.10
2019-03-17T04:33:09.519Z,6.10
2019-03-17T04:35:40.672Z,6.10
2019-03-17T04:38:09.851Z,6.10
2019-03-17T04:40:39.037Z,6.10
2019-03-17T04:43:08.226Z,6.10
2019-03-17T04:45:37.373Z,6.40
2019-03-17T04:48:06.572Z,6.60
2019-03-17T04:50:35.807Z,6.60
2019-03-17T04:53:04.931Z,6.50
2019-03-17T04:55:34.173Z,6.60
2019-03-17T04:58:05.230Z,6.50
2019-03-17T05:00:34.311Z,6.50
2019-03-17T05:03:03.516Z,6.50
2019-03-17T05:05:32.633Z,6.50
2019-03-17T05:08:01.750Z,6.40
2019-03-17T05:10:30.885Z,6.50
2019-03-17T05:13:00.151Z,6.50
2019-03-17T05:15:29.293Z,6.40
2019-03-17T05:17:58.437Z,6.40
2019-03-17T05:20:27.750Z,6.50
2019-03-17T05:22:56.826Z,6.50
2019-03-17T05:25:25.951Z,6.40
2019-03-17T05:27:55.126Z,6.30
2019-03-17T05:30:24.344Z,6.30
2019-03-17T05:32:56.048Z,6.40
2019-03-17T05:35:25.206Z,6.40
2019-03-17T05:37:54.304Z,6.40
2019-03-17T05:40:23.850Z,6.40
2019-03-17T05:42:53.026Z,6.40
2019-03-17T05:45:22.159Z,6.30
2019-03-17T05:47:51.363Z,6.30
2019-03-17T05:50:21.672Z,6.30
2019-03-17T05:52:50.988Z,6.10
2019-03-17T05:55:21.763Z,6.20
2019-03-17T05:57:51.365Z,6.20
2019-03-17T06:00:20.526Z,6.20
2019-03-17T06:02:49.699Z,6.20
2019-03-17T06:05:18.850Z,6.10
2019-03-17T06:07:48.014Z,6.10
2019-03-17T06:10:17.124Z,6.00
2019-03-17T06:12:47.021Z,6.00
2019-03-17T06:15:19.821Z,6.00
2019-03-17T06:17:48.913Z,6.00
2019-03-17T06:20:18.040Z,6.10
2019-03-17T06:22:47.211Z,6.10
2019-03-17T06:25:16.305Z,6.20
2019-03-17T06:27:45.410Z,6.30
2019-03-17T06:30:16.731Z,6.50
2019-03-17T06:32:45.752Z,6.40
2019-03-17T06:35:14.944Z,6.50
2019-03-17T06:37:44.050Z,6.60
2019-03-17T06:40:13.158Z,6.60
2019-03-17T06:42:42.276Z,6.70
2019-03-17T06:45:11.912Z,6.60
2019-03-17T06:47:41.096Z,6.50
2019-03-17T06:50:10.875Z,6.60
2019-03-17T06:52:39.994Z,6.50
2019-03-17T06:55:10.038Z,6.30
2019-03-17T06:57:40.306Z,6.20
2019-03-17T07:00:09.691Z,6.10
2019-03-17T07:02:41.057Z,6.10
2019-03-17T07:05:10.364Z,6.20
2019-03-17T07:07:44.227Z,6.30
2019-03-17T07:10:10.728Z,6.30
2019-03-17T07:12:41.557Z,6.40
2019-03-17T07:15:11.079Z,6.40
2019-03-17T07:17:40.187Z,6.30
2019-03-17T07:20:09.881Z,6.30
2019-03-17T07:22:39.371Z,6.30
2019-03-17T07:25:08.649Z,6.40
2019-03-17T07:27:37.817Z,6.40
2019-03-17T07:30:07.637Z,6.50
2019-03-17T07:32:37.477Z,6.60
2019-03-17T07:35:06.673Z,6.60
2019-03-17T07:37:36.541Z,6.70
2019-03-17T07:40:05.975Z,6.80
2019-03-17T07:42:35.111Z,6.80
2019-03-17T07:45:05.149Z,6.80
2019-03-17T07:47:35.710Z,6.80
2019-03-17T07:50:06.034Z,6.80
2019-03-17T07:52:35.182Z,6.70
2019-03-17T07:55:04.609Z,6.80
2019-03-17T07:57:33.734Z,6.70
2019-03-17T08:00:02.964Z,6.60
2019-03-17T08:02:32.210Z,6.60
2019-03-17T08:05:01.264Z,6.60
2019-03-17T08:07:30.380Z,6.70
2019-03-17T08:09:59.575Z,6.90
2019-03-17T08:12:28.996Z,7.10
2019-03-17T08:14:58.684Z,7.20
2019-03-17T08:17:28.271Z,7.50
2019-03-17T08:19:58.715Z,7.60
2019-03-17T08:22:27.873Z,7.70
2019-03-17T08:24:59.316Z,7.70
2019-03-17T08:27:28.695Z,7.50
2019-03-17T08:29:57.857Z,7.60
2019-03-17T08:32:26.973Z,7.40
2019-03-17T08:34:57.726Z,7.30
2019-03-17T08:37:26.851Z,7.30
2019-03-17T08:39:58.249Z,7.20
2019-03-17T08:42:27.354Z,7.00
2019-03-17T08:44:56.457Z,7.10
2019-03-17T08:47:26.429Z,7.10
2019-03-17T08:49:55.536Z,7.20
2019-03-17T08:52:25.701Z,7.20
2019-03-17T08:54:54.821Z,7.20
2019-03-17T08:57:23.918Z,7.10
2019-03-17T08:59:53.035Z,7.00
2019-03-17T09:02:22.394Z,6.90
2019-03-17T09:04:52.609Z,7.00
2019-03-17T09:07:21.731Z,7.20
2019-03-17T09:09:50.818Z,7.50
2019-03-17T09:12:19.927Z,7.70
2019-03-17T09:14:49.074Z,7.90
2019-03-17T09:17:18.148Z,8.00
2019-03-17T09:19:47.254Z,8.00
2019-03-17T09:22:16.388Z,8.00
2019-03-17T09:24:45.411Z,8.00
2019-03-17T09:27:14.534Z,7.80
2019-03-17T09:29:43.709Z,8.00
2019-03-17T09:32:12.795Z,8.20
2019-03-17T09:34:41.934Z,8.40
2019-03-17T09:37:11.262Z,8.70
2019-03-17T09:39:40.365Z,8.90
2019-03-17T09:42:11.124Z,9.10
2019-03-17T09:44:40.459Z,9.20
2019-03-17T09:47:09.861Z,9.10
2019-03-17T09:49:38.907Z,8.80
2019-03-17T09:52:08.115Z,8.50
2019-03-17T09:54:37.288Z,8.40
2019-03-17T09:57:06.409Z,8.60
2019-03-17T09:59:35.516Z,8.90
2019-03-17T10:02:04.865Z,9.00
2019-03-17T10:04:34.000Z,8.80
2019-03-17T10:07:03.257Z,8.70
2019-03-17T10:09:32.371Z,8.70
2019-03-17T10:12:01.573Z,8.70
2019-03-17T10:14:30.965Z,8.50
2019-03-17T10:17:00.150Z,8.30
2019-03-17T10:19:29.275Z,8.00
2019-03-17T10:21:59.064Z,7.80
2019-03-17T10:24:32.136Z,7.70
2019-03-17T10:27:04.000Z,7.90
2019-03-17T10:29:33.122Z,8.40
2019-03-17T10:32:03.432Z,8.50
2019-03-17T10:34:34.923Z,9.00
2019-03-17T10:37:05.937Z,9.30
2019-03-17T10:39:54.676Z,9.50
2019-03-17T10:42:26.894Z,9.30
2019-03-17T10:44:56.399Z,9.20
2019-03-17T10:47:26.548Z,9.10
2019-03-17T10:49:56.001Z,8.80
2019-03-17T10:52:25.182Z,8.40
2019-03-17T10:54:54.562Z,8.10
2019-03-17T10:57:23.732Z,8.00
2019-03-17T10:59:53.017Z,8.10
2019-03-17T11:02:22.115Z,8.60
2019-03-17T11:04:51.291Z,8.80
2019-03-17T11:07:20.532Z,9.00
2019-03-17T11:09:49.682Z,9.20
2019-03-17T11:12:18.796Z,9.40
2019-03-17T11:14:47.965Z,9.10
2019-03-17T11:17:17.103Z,8.90
2019-03-17T11:19:46.242Z,9.10
2019-03-17T11:22:15.376Z,9.40
2019-03-17T11:24:44.482Z,9.20
2019-03-17T11:27:13.629Z,9.00
2019-03-17T11:29:42.779Z,8.60
2019-03-17T11:32:11.886Z,8.70
2019-03-17T11:34:41.056Z,8.90
2019-03-17T11:37:10.241Z,9.00
2019-03-17T11:39:39.352Z,8.90
2019-03-17T11:42:08.470Z,8.70
2019-03-17T11:44:38.007Z,8.50
2019-03-17T11:47:07.119Z,8.70
2019-03-17T11:49:37.417Z,8.60
2019-03-17T11:52:06.918Z,8.40
2019-03-17T11:54:36.097Z,8.40
2019-03-17T11:57:05.187Z,8.40
2019-03-17T11:59:34.352Z,8.40
2019-03-17T12:02:05.175Z,8.20
2019-03-17T12:04:34.584Z,8.30
2019-03-17T12:07:03.622Z,8.40
2019-03-17T12:09:33.675Z,8.60
2019-03-17T12:12:02.786Z,8.90
2019-03-17T12:14:33.330Z,8.90
2019-03-17T12:17:06.729Z,8.90
2019-03-17T12:19:35.888Z,8.80
2019-03-17T12:22:09.499Z,8.60
2019-03-17T12:24:38.809Z,8.50
2019-03-17T12:27:07.909Z,8.60
2019-03-17T12:29:37.203Z,8.70
2019-03-17T12:32:12.205Z,8.90
2019-03-17T12:34:41.311Z,9.00
2019-03-17T12:37:10.537Z,8.90
2019-03-17T12:39:39.849Z,9.10
2019-03-17T12:42:09.055Z,9.30
2019-03-17T12:44:40.051Z,9.70
2019-03-17T12:47:09.392Z,9.30
2019-03-17T12:49:38.691Z,9.00
2019-03-17T12:52:08.029Z,8.70
2019-03-17T12:54:37.379Z,8.50
2019-03-17T12:57:06.661Z,8.50
2019-03-17T12:59:35.990Z,8.50
2019-03-17T13:02:05.264Z,8.40
2019-03-17T13:04:34.618Z,8.50
2019-03-17T13:07:05.232Z,8.50
2019-03-17T13:09:35.830Z,8.50
2019-03-17T13:12:04.964Z,8.70
2019-03-17T13:14:34.072Z,8.60
2019-03-17T13:17:03.262Z,8.50
2019-03-17T13:19:32.482Z,8.30
2019-03-17T13:22:01.737Z,8.30
2019-03-17T13:24:31.660Z,8.40
2019-03-17T13:27:01.221Z,8.80
2019-03-17T13:29:30.338Z,9.40
2019-03-17T13:31:59.796Z,9.60
2019-03-17T13:34:28.980Z,9.50
2019-03-17T13:36:58.085Z,9.10
2019-03-17T13:39:30.429Z,8.80
2019-03-17T13:42:01.642Z,8.60
2019-03-17T13:44:30.759Z,8.70
2019-03-17T13:46:59.979Z,8.60
2019-03-17T13:49:30.953Z,8.60
2019-03-17T13:52:03.548Z,8.40
2019-03-17T13:54:32.684Z,8.30
2019-03-17T13:57:02.103Z,8.20
2019-03-17T13:59:31.241Z,8.20
2019-03-17T14:02:00.415Z,8.10
2019-03-17T14:04:29.650Z,8.20
2019-03-17T14:06:58.756Z,8.30
2019-03-17T14:09:28.809Z,8.40
2019-03-17T14:12:00.176Z,8.60
2019-03-17T14:14:29.306Z,8.40
2019-03-17T14:16:58.514Z,8.40
2019-03-17T14:19:27.768Z,8.60
2019-03-17T14:21:56.937Z,8.60
2019-03-17T14:24:26.166Z,8.50
2019-03-17T14:26:55.304Z,8.50
2019-03-17T14:29:24.433Z,8.80
2019-03-17T14:31:53.573Z,8.70
2019-03-17T14:34:22.694Z,8.60
2019-03-17T14:36:51.864Z,8.40
2019-03-17T14:39:21.866Z,8.30
2019-03-17T14:41:51.394Z,8.40
2019-03-17T14:44:20.610Z,8.50
2019-03-17T14:46:49.842Z,8.60
2019-03-17T14:49:19.032Z,8.40
2019-03-17T14:51:50.640Z,8.50
2019-03-17T14:54:19.837Z,8.50
2019-03-17T14:56:48.988Z,8.90
2019-03-17T14:59:18.185Z,9.10
2019-03-17T15:01:47.463Z,9.10
2019-03-17T15:04:16.805Z,9.00
2019-03-17T15:06:46.121Z,8.90
2019-03-17T15:09:15.239Z,8.80
2019-03-17T15:11:44.565Z,8.70
2019-03-17T15:14:13.719Z,8.50
2019-03-17T15:16:42.837Z,8.70
2019-03-17T15:19:11.979Z,8.90
2019-03-17T15:21:41.225Z,9.10
2019-03-17T15:24:12.500Z,9.30
2019-03-17T15:26:42.413Z,9.20
2019-03-17T15:29:12.376Z,9.10
2019-03-17T15:31:41.561Z,9.00
2019-03-17T15:34:13.674Z,9.20
2019-03-17T15:36:42.805Z,9.50
2019-03-17T15:39:12.029Z,9.70
2019-03-17T15:41:41.168Z,9.60
2019-03-17T15:44:10.494Z,9.40
2019-03-17T15:46:40.021Z,9.10
2019-03-17T15:49:09.396Z,8.90
2019-03-17T15:51:38.502Z,8.70
2019-03-17T15:54:07.650Z,8.50
2019-03-17T15:56:36.786Z,8.40
2019-03-17T15:59:05.940Z,8.40
2019-03-17T16:01:35.026Z,8.20
2019-03-17T16:04:04.211Z,7.80
2019-03-17T16:06:33.369Z,7.50
2019-03-17T16:09:02.991Z,7.60
2019-03-17T16:11:32.149Z,7.60
2019-03-17T16:14:01.367Z,7.60
2019-03-17T16:16:30.659Z,7.40
2019-03-17T16:18:59.983Z,6.90
2019-03-17T16:21:29.116Z,6.60
2019-03-17T16:23:58.213Z,6.40
2019-03-17T16:26:27.375Z,6.30
2019-03-17T16:28:56.511Z,6.20
2019-03-17T16:31:25.653Z,6.20
2019-03-17T16:33:54.929Z,6.30
2019-03-17T16:36:24.083Z,6.40
2019-03-17T16:38:53.237Z,6.60
2019-03-17T16:41:24.683Z,6.90
2019-03-17T16:43:54.443Z,7.10
2019-03-17T16:46:23.561Z,7.10
2019-03-17T16:48:52.712Z,7.10
2019-03-17T16:51:21.870Z,7.20
2019-03-17T16:53:50.950Z,7.20
2019-03-17T16:56:20.130Z,7.20
2019-03-17T16:58:49.211Z,7.20
2019-03-17T17:01:18.352Z,7.20
2019-03-17T17:03:47.513Z,7.20
2019-03-17T17:06:16.800Z,7.10
2019-03-17T17:08:45.980Z,7.00
2019-03-17T17:11:15.186Z,6.90
2019-03-17T17:13:46.561Z,6.80
2019-03-17T17:16:17.084Z,6.70
2019-03-17T17:18:46.228Z,6.60
2019-03-17T17:21:15.429Z,6.50
2019-03-17T17:23:44.830Z,6.40
2019-03-17T17:26:17.350Z,6.40
2019-03-17T17:28:46.726Z,6.30
2019-03-17T17:31:15.887Z,6.30
2019-03-17T17:33:45.017Z,6.30
2019-03-17T17:36:14.149Z,6.20
2019-03-17T17:38:43.303Z,6.20
2019-03-17T17:41:16.598Z,6.10
2019-03-17T17:43:45.800Z,6.10
2019-03-17T17:46:17.083Z,6.10
2019-03-17T17:48:46.230Z,6.00
2019-03-17T17:51:16.535Z,6.00
2019-03-17T17:53:48.046Z,6.00
2019-03-17T17:56:17.275Z,6.00
2019-03-17T17:58:46.683Z,6.00
2019-03-17T18:01:18.375Z,6.10
2019-03-17T18:03:51.752Z,6.00
2019-03-17T18:06:18.511Z,6.00
2019-03-17T18:08:47.698Z,6.00
2019-03-17T18:11:16.858Z,6.00
2019-03-17T18:13:45.998Z,6.00
2019-03-17T18:16:15.236Z,6.10
2019-03-17T18:18:44.382Z,6.10
2019-03-17T18:21:15.914Z,6.00
2019-03-17T18:23:45.059Z,6.00
2019-03-17T18:26:14.240Z,6.10
2019-03-17T18:28:43.370Z,6.10
2019-03-17T18:31:12.953Z,6.10
2019-03-17T18:33:42.170Z,6.20
2019-03-17T18:36:11.544Z,6.20
2019-03-17T18:38:40.801Z,6.20
2019-03-17T18:41:09.992Z,6.20
2019-03-17T18:43:39.162Z,6.00
2019-03-17T18:46:08.372Z,6.00
2019-03-17T18:48:37.675Z,6.00
2019-03-17T18:51:06.783Z,5.90
2019-03-17T18:53:36.121Z,5.90
2019-03-17T18:56:05.819Z,5.80
2019-03-17T18:58:34.945Z,5.90
2019-03-17T19:01:04.579Z,5.90
2019-03-17T19:03:33.695Z,5.80
2019-03-17T19:06:02.896Z,6.00
2019-03-17T19:08:33.035Z,5.90
2019-03-17T19:11:02.155Z,5.80
2019-03-17T19:13:31.283Z,5.70
2019-03-17T19:16:00.435Z,5.70
2019-03-17T19:18:29.630Z,5.70
2019-03-17T19:20:58.758Z,5.70
2019-03-17T19:23:29.100Z,5.70
2019-03-17T19:25:58.136Z,5.70
2019-03-17T19:28:27.269Z,5.60
2019-03-17T19:30:56.432Z,5.60
2019-03-17T19:33:25.596Z,5.60
2019-03-17T19:35:55.329Z,5.60
2019-03-17T19:38:24.763Z,5.50
2019-03-17T19:40:54.208Z,5.50
2019-03-17T19:43:23.418Z,5.50
2019-03-17T19:45:52.734Z,5.40
2019-03-17T19:48:21.873Z,5.40
2019-03-17T19:50:51.126Z,5.40
2019-03-17T19:53:20.293Z,5.40
2019-03-17T19:55:49.413Z,5.40
2019-03-17T19:58:18.648Z,5.30
2019-03-17T20:00:47.826Z,5.40
2019-03-17T20:03:16.956Z,5.40
2019-03-17T20:05:46.154Z,5.50
2019-03-17T20:08:15.291Z,5.50
2019-03-17T20:10:44.412Z,5.50
2019-03-17T20:13:13.724Z,5.40
2019-03-17T20:15:43.199Z,5.40
2019-03-17T20:18:12.352Z,5.40
2019-03-17T20:20:41.448Z,5.30
2019-03-17T20:23:11.513Z,5.30
2019-03-17T20:25:47.249Z,5.30
2019-03-17T20:28:16.428Z,5.30
2019-03-17T20:30:45.979Z,5.30
2019-03-17T20:33:15.216Z,5.30
2019-03-17T20:35:44.404Z,5.20
2019-03-17T20:38:13.587Z,5.20
2019-03-17T20:40:42.837Z,5.20
2019-03-17T20:43:24.015Z,5.20
2019-03-17T20:45:53.198Z,5.20
2019-03-17T20:48:23.260Z,5.10
2019-03-17T20:50:52.824Z,5.10
2019-03-17T20:53:27.633Z,5.10
2019-03-17T20:55:56.942Z,5.00
2019-03-17T20:58:26.054Z,5.00
2019-03-17T21:00:55.219Z,5.30
2019-03-17T21:03:24.468Z,5.20
2019-03-17T21:05:53.636Z,5.20
2019-03-17T21:08:22.927Z,5.20
2019-03-17T21:10:52.102Z,5.10
2019-03-17T21:13:21.228Z,5.10
2019-03-17T21:15:50.355Z,5.00
2019-03-17T21:18:19.555Z,4.90
2019-03-17T21:20:48.771Z,4.90
2019-03-17T21:23:17.899Z,4.90
2019-03-17T21:25:47.057Z,4.80
2019-03-17T21:28:16.155Z,4.70
2019-03-17T21:30:45.261Z,4.70
2019-03-17T21:33:14.398Z,4.70
2019-03-17T21:35:43.531Z,4.60
2019-03-17T21:38:12.690Z,4.70
2019-03-17T21:40:56.435Z,4.60
2019-03-17T21:43:12.829Z,4.50
2019-03-17T21:45:42.072Z,4.50
2019-03-17T21:48:11.224Z,4.40
2019-03-17T21:50:40.328Z,4.40
2019-03-17T21:53:09.438Z,4.50
2019-03-17T21:55:38.580Z,4.60
2019-03-17T21:58:08.576Z,4.60
2019-03-17T22:00:37.806Z,4.70
2019-03-17T22:03:07.060Z,4.70
2019-03-17T22:05:36.217Z,4.70
2019-03-17T22:08:05.358Z,4.80
2019-03-17T22:10:34.524Z,4.80
2019-03-17T22:13:03.673Z,4.90
2019-03-17T22:15:32.870Z,5.00
2019-03-17T22:18:02.074Z,5.10
2019-03-17T22:20:31.181Z,5.20
2019-03-17T22:23:00.334Z,5.40
2019-03-17T22:25:29.612Z,5.50
2019-03-17T22:28:08.406Z,5.50
2019-03-17T22:30:31.288Z,5.50
2019-03-17T22:33:00.408Z,5.60
2019-03-17T22:35:29.549Z,5.60
2019-03-17T22:37:58.756Z,5.70
2019-03-17T22:40:27.870Z,5.70
2019-03-17T22:42:57.033Z,5.80
2019-03-17T22:45:26.176Z,5.90
2019-03-17T22:47:55.291Z,6.00
2019-03-17T22:50:24.475Z,6.00
2019-03-17T22:52:53.599Z,6.00
2019-03-17T22:55:23.012Z,6.00
2019-03-17T22:57:52.125Z,6.00
2019-03-17T23:00:26.200Z,6.00
2019-03-17T23:02:55.374Z,6.10
2019-03-17T23:05:24.551Z,6.10
2019-03-17T23:07:53.738Z,6.20
2019-03-17T23:10:22.912Z,6.20
2019-03-17T23:12:52.040Z,6.30
2019-03-17T23:15:21.196Z,6.30
2019-03-17T23:17:50.310Z,6.40
2019-03-17T23:20:19.452Z,6.40
2019-03-17T23:22:48.776Z,6.40
2019-03-17T23:25:17.882Z,6.40
2019-03-17T23:27:46.977Z,6.50
2019-03-17T23:30:18.156Z,6.40
2019-03-17T23:32:49.217Z,6.40
2019-03-17T23:35:18.000Z,6.40
2019-03-17T23:37:47.203Z,6.50
2019-03-17T23:40:16.762Z,6.50
2019-03-17T23:42:45.890Z,6.60
2019-03-17T23:45:16.008Z,6.60
2019-03-17T23:47:45.176Z,6.60
2019-03-17T23:50:14.318Z,6.60
2019-03-17T23:52:43.501Z,6.60
2019-03-17T23:55:12.827Z,6.60
2019-03-17T23:57:41.995Z,6.70
